Time;durP1;ratioP1;P1;durP2;ratioP2;P2;SDS_P1;SDS_P2;PMS_P1;PMS_P2;Temp;Humidity;BMP_temperature;BMP_pressure;BME280_temperature;BME280_humidity;BME280_pressure;Samples;Min_cycle;Max_cycle;Signal;HPM_P1;HPM_P2
2022/10/24 00:01:17;;;;;;;6.60;5.25;;;;;;;19.93;58.63;96750.72;10440749;28;20416;-59
2022/10/24 00:06:39;;;;;;;6.53;4.90;;;;;;;19.93;58.69;96748.03;10415938;28;20123;-60
2022/10/24 00:11:58;;;;;;;6.63;5.00;;;;;;;19.92;58.72;96742.94;10422805;28;20111;-60
2022/10/24 00:17:18;;;;;;;7.10;5.13;;;;;;;19.92;58.67;96756.47;10417671;28;20065;-61
2022/10/24 00:22:37;;;;;;;6.80;4.97;;;;;;;19.91;58.70;96752.94;10417047;28;20427;-61
2022/10/24 00:27:56;;;;;;;7.05;4.95;;;;;;;19.91;58.73;96766.47;10425585;28;20046;-61
2022/10/24 00:33:16;;;;;;;6.32;4.82;;;;;;;19.89;58.76;96776.81;10416745;28;20060;-61
2022/10/24 00:38:35;;;;;;;7.07;4.90;;;;;;;19.89;58.73;96779.50;10416630;28;20061;-61
2022/10/24 00:44:23;;;;;;;6.85;4.68;;;;;;;19.89;58.71;96795.75;10418364;28;20054;-61
2022/10/24 00:49:49;;;;;;;6.47;4.90;;;;;;;19.88;58.68;96801.50;10428238;28;20405;-61
2022/10/24 00:55:09;;;;;;;5.18;4.20;;;;;;;19.89;58.69;96800.34;10415946;28;20054;-61
2022/10/24 01:00:31;;;;;;;6.65;4.63;;;;;;;19.87;58.71;96797.19;10413808;28;20069;-59
2022/10/24 01:06:29;;;;;;;6.10;4.80;;;;;;;19.86;58.74;96809.91;10405284;28;20057;-61
2022/10/24 01:11:58;;;;;;;5.55;4.30;;;;;;;19.86;58.75;96814.53;10424328;28;20440;-61
2022/10/24 01:17:29;;;;;;;6.03;4.25;;;;;;;19.86;58.81;96811.84;10423803;28;20041;-60
2022/10/24 01:23:21;;;;;;;5.65;4.45;;;;;;;19.84;58.76;96793.25;10402931;28;20050;-60
2022/10/24 01:29:09;;;;;;;6.15;4.47;;;;;;;19.83;58.82;96809.78;10440547;28;20054;-61
2022/10/24 01:34:30;;;;;;;;;;;;;;;19.83;58.70;96813.25;10414901;28;20420;-61
2022/10/24 01:39:52;;;;;;;5.88;4.07;;;;;;;19.83;58.62;96812.47;10414168;28;19925;-61
2022/10/24 01:45:17;;;;;;;4.80;4.00;;;;;;;19.83;58.77;96834.09;10428549;28;20068;-61
2022/10/24 01:50:38;;;;;;;5.80;4.07;;;;;;;19.81;58.80;96837.13;10398718;28;20058;-60
2022/10/24 01:55:57;;;;;;;5.07;4.28;;;;;;;19.82;58.74;96833.31;10405210;28;20049;-61
2022/10/24 02:01:21;;;;;;;5.32;3.95;;;;;;;19.81;58.68;96820.91;10402411;28;20061;-61
2022/10/24 02:06:42;;;;;;;4.82;4.10;;;;;;;19.80;58.73;96803.13;10398449;28;20061;-61
2022/10/24 02:12:01;;;;;;;4.43;3.97;;;;;;;19.81;58.72;96826.31;10421740;28;20064;-61
2022/10/24 02:17:21;;;;;;;5.25;4.10;;;;;;;19.79;58.69;96819.66;10398204;28;20404;-60
2022/10/24 02:22:46;;;;;;;5.50;4.18;;;;;;;19.79;58.70;96812.34;10426389;28;20412;-61
2022/10/24 02:28:10;;;;;;;4.70;4.25;;;;;;;19.79;58.71;96811.53;10399878;28;20501;-60
2022/10/24 02:33:30;;;;;;;5.30;3.92;;;;;;;19.78;58.86;96816.16;10397158;28;20532;-61
2022/10/24 02:38:51;;;;;;;4.25;3.72;;;;;;;19.77;58.81;96822.69;10412185;28;20112;-60
2022/10/24 02:44:12;;;;;;;4.93;3.83;;;;;;;19.76;58.73;96799.47;10419977;28;20107;-60
2022/10/24 02:49:31;;;;;;;4.20;3.80;;;;;;;19.76;58.73;96799.47;10397907;28;20115;-61
2022/10/24 02:54:50;;;;;;;4.80;3.80;;;;;;;19.75;58.72;96773.56;10425261;28;20049;-60
2022/10/24 03:00:10;;;;;;;5.80;4.18;;;;;;;19.76;58.75;96804.88;10416859;28;20072;-61
2022/10/24 03:05:30;;;;;;;4.72;3.67;;;;;;;19.74;58.74;96766.56;10412537;28;20059;-61
2022/10/24 03:10:49;;;;;;;4.45;3.60;;;;;;;19.74;58.68;96772.00;10415359;28;20398;-57
2022/10/24 03:16:09;;;;;;;5.50;3.85;;;;;;;19.74;58.74;96777.41;10427284;28;20057;-61
2022/10/24 03:21:28;;;;;;;4.00;3.60;;;;;;;19.74;58.68;96772.00;10419312;28;20068;-61
2022/10/24 03:26:50;;;;;;;4.45;3.80;;;;;;;19.72;58.84;96772.31;10415866;28;20056;-61
2022/10/24 03:32:10;;;;;;;4.28;3.58;;;;;;;19.72;58.83;96768.81;10419098;28;20064;-61
2022/10/24 03:37:29;;;;;;;4.82;3.55;;;;;;;19.72;58.75;96774.22;10429224;28;20057;-60
2022/10/24 03:42:49;;;;;;;4.88;3.65;;;;;;;19.71;58.85;96759.91;10430974;28;20111;-59
2022/10/24 03:48:09;;;;;;;4.25;3.70;;;;;;;19.71;58.84;96775.28;10408364;28;20127;-60
2022/10/24 03:53:28;;;;;;;4.40;3.63;;;;;;;19.70;58.83;96771.03;10418471;28;20107;-61
2022/10/24 03:58:48;;;;;;;3.97;3.55;;;;;;;19.71;58.90;96775.28;10420262;28;20432;-60
2022/10/24 04:04:07;;;;;;;4.13;3.50;;;;;;;19.70;58.99;96752.09;10412218;28;20394;-60
2022/10/24 04:09:27;;;;;;;4.78;4.03;;;;;;;19.70;59.13;96765.63;10416993;28;20064;-61
2022/10/24 04:14:46;;;;;;;3.70;3.28;;;;;;;19.71;59.34;96762.59;10443504;28;20060;-61
2022/10/24 04:20:06;;;;;;;5.35;3.50;;;;;;;19.71;59.32;96761.78;10416905;28;20061;-61
2022/10/24 04:25:25;;;;;;;3.75;3.10;;;;;;;19.71;59.32;96750.97;10429284;28;20053;-60
2022/10/24 04:30:44;;;;;;;3.67;3.22;;;;;;;19.71;59.60;96756.38;10415906;28;20489;-61
2022/10/24 04:36:04;;;;;;;4.72;3.25;;;;;;;19.71;59.60;96756.38;10409213;28;20050;-60
2022/10/24 04:41:23;;;;;;;5.20;3.50;;;;;;;19.71;59.53;96764.50;10429075;28;20455;-61
2022/10/24 04:46:43;;;;;;;5.28;3.33;;;;;;;19.72;59.66;96752.59;10414124;28;20412;-61
2022/10/24 04:52:02;;;;;;;4.60;3.47;;;;;;;19.72;59.68;96764.19;10415823;28;20061;-61
2022/10/24 04:57:22;;;;;;;6.10;3.20;;;;;;;19.73;59.63;96765.75;10417694;28;20057;-61
2022/10/24 05:02:41;;;;;;;4.82;3.40;;;;;;;19.75;59.81;96762.75;10415398;28;20045;-60
2022/10/24 05:08:01;;;;;;;6.05;3.53;;;;;;;19.75;59.84;96768.16;10415100;28;20076;-60
2022/10/24 05:13:20;;;;;;;9.55;3.67;;;;;;;19.75;59.85;96762.75;10418509;28;20061;-61
2022/10/24 05:18:39;;;;;;;10.07;4.47;;;;;;;19.75;59.90;96765.44;10428295;28;20621;-61
2022/10/24 05:23:58;;;;;;;10.23;4.50;;;;;;;19.75;60.01;96774.34;10414657;28;20053;-60
2022/10/24 05:29:18;;;;;;;14.80;5.55;;;;;;;19.76;60.03;96780.56;10421909;28;20060;-60
2022/10/24 05:34:37;;;;;;;14.55;5.72;;;;;;;19.77;59.93;96748.91;10426721;28;20386;-61
2022/10/24 05:39:56;;;;;;;11.02;5.30;;;;;;;19.76;59.96;96729.19;10409325;28;20053;-61
2022/10/24 05:45:15;;;;;;;13.77;5.07;;;;;;;19.78;59.99;96732.38;10426271;28;20068;-60
2022/10/24 05:50:35;;;;;;;14.93;5.47;;;;;;;19.79;59.92;96716.94;10413940;28;20060;-61
2022/10/24 05:55:55;;;;;;;14.80;5.63;;;;;;;19.81;60.02;96712.00;10421822;28;20053;-61
2022/10/24 06:01:15;;;;;;;14.68;5.97;;;;;;;19.81;59.93;96729.00;10413296;28;20053;-60
2022/10/24 06:06:39;;;;;;;16.00;5.95;;;;;;;19.83;59.94;96761.91;10413657;28;20057;-61
2022/10/24 06:12:00;;;;;;;15.75;5.97;;;;;;;19.84;59.97;96766.19;10429075;28;20054;-60
2022/10/24 06:17:19;;;;;;;12.80;5.45;;;;;;;19.86;59.93;96758.56;10413340;28;20072;-60
2022/10/24 06:22:39;;;;;;;14.57;5.45;;;;;;;19.89;59.87;96735.47;10413419;28;20137;-61
2022/10/24 06:28:00;;;;;;;12.18;5.18;;;;;;;19.89;59.84;96733.56;10415801;28;20057;-59
2022/10/24 06:33:20;;;;;;;12.68;5.40;;;;;;;19.92;59.92;96743.72;10411953;28;20056;-61
2022/10/24 06:38:40;;;;;;;12.05;5.22;;;;;;;19.93;59.84;96753.44;10425861;28;20056;-61
2022/10/24 06:44:01;;;;;;;12.55;5.30;;;;;;;19.95;59.82;96761.19;10409512;28;20108;-61
2022/10/24 06:49:21;;;;;;;11.13;5.00;;;;;;;19.97;59.82;96775.19;10433382;28;20404;-61
2022/10/24 06:54:40;;;;;;;12.18;5.07;;;;;;;19.99;59.96;96772.94;10436100;28;20068;-61
2022/10/24 07:00:00;;;;;;;9.73;4.80;;;;;;;20.02;59.94;96785.03;10420198;28;20076;-60
2022/10/24 07:05:19;;;;;;;11.15;5.07;;;;;;;20.04;60.06;96766.56;10419586;28;20218;-61
2022/10/24 07:10:38;;;;;;;11.18;5.00;;;;;;;20.05;59.98;96766.25;10431835;28;20049;-61
2022/10/24 07:15:57;;;;;;;9.50;4.75;;;;;;;20.09;59.80;96766.34;10425924;28;20053;-61
2022/10/24 07:21:26;;;;;;;10.52;4.70;;;;;;;20.11;59.92;96769.53;10419706;28;20059;-60
2022/10/24 07:26:45;;;;;;;;;;;;;;;20.12;59.82;96763.00;10423868;28;20057;-61
2022/10/24 07:32:04;;;;;;;8.48;4.60;;;;;;;20.15;59.68;96762.38;10419360;28;20304;-61
2022/10/24 07:37:24;;;;;;;10.68;4.50;;;;;;;20.18;59.73;96767.09;10418532;28;20504;-61
2022/10/24 07:42:43;;;;;;;10.40;4.43;;;;;;;20.22;59.63;96772.66;10417502;28;20061;-60
2022/10/24 07:48:04;;;;;;;11.25;4.85;;;;;;;20.23;59.69;96766.91;10418736;28;20057;-61
2022/10/24 07:53:26;;;;;;;8.43;4.68;;;;;;;20.24;59.67;96763.06;10419922;28;20054;-61
2022/10/24 07:58:46;;;;;;;9.38;4.43;;;;;;;20.27;59.38;96756.22;10417301;28;20116;-61
2022/10/24 08:04:05;;;;;;;10.05;4.53;;;;;;;20.29;59.35;96768.31;10430903;28;20049;-61
2022/10/24 08:09:25;;;;;;;9.35;4.57;;;;;;;20.31;59.26;96776.09;10417381;28;20061;-61
2022/10/24 08:14:45;;;;;;;8.10;4.28;;;;;;;20.33;59.25;96768.44;10417731;28;20057;-61
2022/10/24 08:20:06;;;;;;;9.05;4.10;;;;;;;20.35;59.10;96772.38;10430411;28;20107;-61
2022/10/24 08:25:26;;;;;;;6.85;4.05;;;;;;;20.37;59.03;96768.56;10429990;28;20057;-61
2022/10/24 08:30:57;;;;;;;7.70;4.13;;;;;;;20.39;59.10;96777.16;10417312;28;20057;-61
2022/10/24 08:36:23;;;;;;;6.20;3.72;;;;;;;20.40;59.07;96792.25;10416850;28;20053;-61
2022/10/24 08:41:54;;;;;;;7.00;3.80;;;;;;;20.40;58.99;96786.84;10415772;28;20067;-60
2022/10/24 08:47:37;;;;;;;7.53;3.78;;;;;;;20.42;58.92;96800.84;10415686;28;20053;-61
2022/10/24 08:53:10;;;;;;;8.18;3.70;;;;;;;20.42;58.89;96804.31;10405136;28;20060;-61
2022/10/24 08:58:43;;;;;;;6.28;3.40;;;;;;;20.44;59.03;96795.88;10400420;28;20066;-61
2022/10/24 09:04:07;;;;;;;7.00;3.60;;;;;;;20.44;58.99;96793.16;10407283;28;20065;-61
2022/10/24 09:09:37;;;;;;;6.05;3.50;;;;;;;20.47;58.98;96803.34;10407369;28;20061;-61
2022/10/24 09:14:58;;;;;;;8.82;3.97;;;;;;;20.46;59.01;96791.72;10413300;28;20049;-61
2022/10/24 09:20:27;;;;;;;6.60;3.63;;;;;;;20.46;59.14;96786.31;10413126;28;20501;-61
2022/10/24 09:25:49;;;;;;;6.43;3.45;;;;;;;20.47;59.17;96792.53;10414343;28;20054;-61
2022/10/24 09:31:17;;;;;;;4.88;3.60;;;;;;;20.49;59.21;96806.53;10399792;28;20057;-61
2022/10/24 09:36:38;;;;;;;8.02;3.70;;;;;;;20.49;59.05;96822.75;10422188;28;20057;-61
2022/10/24 09:41:58;;;;;;;6.45;3.58;;;;;;;20.49;59.06;96828.16;10414443;28;20080;-61
2022/10/24 09:47:26;;;;;;;5.07;3.55;;;;;;;20.49;59.23;96812.72;10413827;28;20133;-61
2022/10/24 09:52:49;;;;;;;5.23;3.60;;;;;;;20.49;59.01;96818.13;10421185;28;20060;-61
2022/10/24 09:58:17;;;;;;;7.20;3.22;;;;;;;20.49;59.05;96818.13;10412048;28;20292;-62
2022/10/24 10:03:36;;;;;;;5.60;3.30;;;;;;;20.49;59.17;96806.53;10412941;28;20096;-61
2022/10/24 10:08:56;;;;;;;5.32;3.35;;;;;;;20.50;59.08;96818.91;10432644;28;20053;-61
2022/10/24 10:14:23;;;;;;;5.50;3.50;;;;;;;20.51;59.33;96818.59;10413749;28;20053;-61
2022/10/24 10:19:44;;;;;;;4.68;3.17;;;;;;;20.50;59.08;96808.09;10413488;28;20061;-61
2022/10/24 10:25:04;;;;;;;4.95;3.20;;;;;;;20.50;59.02;96800.78;10410757;28;20114;-62
2022/10/24 10:30:24;;;;;;;5.75;3.30;;;;;;;20.51;59.08;96798.88;10422030;28;20071;-62
2022/10/24 10:36:01;;;;;;;5.55;3.13;;;;;;;20.51;59.00;96793.44;10411646;28;20053;-61
2022/10/24 10:41:33;;;;;;;5.30;3.13;;;;;;;20.49;59.01;96801.88;10407083;28;20053;-61
2022/10/24 10:47:00;;;;;;;5.00;3.10;;;;;;;20.50;59.15;96808.09;10421093;28;20053;-62
2022/10/24 10:52:43;;;;;;;4.57;2.92;;;;;;;20.50;59.01;96811.59;10428346;28;20077;-61
2022/10/24 10:58:18;;;;;;;4.35;3.00;;;;;;;20.50;59.09;96832.44;10406140;28;20135;-61
2022/10/24 11:03:46;;;;;;;4.50;2.53;;;;;;;20.51;58.98;96831.34;10411692;28;20058;-61
2022/10/24 11:09:33;;;;;;;4.63;2.78;;;;;;;20.49;59.06;96823.53;10427012;28;20053;-61
2022/10/24 11:15:06;;;;;;;5.72;3.10;;;;;;;20.50;59.00;96827.84;10419426;28;20574;-61
2022/10/24 11:20:30;;;;;;;4.55;2.90;;;;;;;20.51;59.06;96825.91;10419832;28;20061;-61
2022/10/24 11:26:14;;;;;;;4.63;3.10;;;;;;;20.49;59.01;96811.94;10404459;28;20111;-60
2022/10/24 11:31:36;;;;;;;5.55;3.13;;;;;;;20.50;59.12;96803.50;10400862;28;20069;-61
2022/10/24 11:37:03;;;;;;;3.70;2.65;;;;;;;20.51;59.01;96806.97;10443055;28;20053;-61
2022/10/24 11:42:46;;;;;;;4.10;2.63;;;;;;;20.49;59.12;96779.47;10403660;28;20062;-61
2022/10/24 11:48:17;;;;;;;3.78;2.60;;;;;;;20.51;59.08;96788.03;10403934;28;20061;-59
2022/10/24 11:53:38;;;;;;;5.22;2.92;;;;;;;20.48;59.20;96786.78;10439194;28;20069;-62
2022/10/24 11:59:00;;;;;;;5.57;2.80;;;;;;;20.50;59.15;96797.25;10418667;28;20080;-62
2022/10/24 12:04:34;;;;;;;4.03;2.63;;;;;;;20.48;59.24;96786.78;10418079;28;20140;-62
2022/10/24 12:10:18;;;;;;;4.05;2.47;;;;;;;20.50;59.18;96781.03;10425076;28;20057;-61
2022/10/24 12:16:04;;;;;;;4.03;2.58;;;;;;;20.47;59.19;96779.78;10402829;28;20061;-61
2022/10/24 12:21:26;;;;;;;3.83;2.70;;;;;;;20.48;58.99;96777.84;10404097;28;20053;-61
2022/10/24 12:26:55;;;;;;;4.43;2.50;;;;;;;20.48;59.27;96767.03;10417840;28;20060;-61
2022/10/24 12:32:36;;;;;;;3.72;2.47;;;;;;;20.47;59.14;96765.47;10415221;28;20046;-61
2022/10/24 12:37:56;;;;;;;3.95;2.70;;;;;;;20.48;59.15;96767.03;10414544;28;20068;-61
2022/10/24 12:43:36;;;;;;;3.15;2.35;;;;;;;20.45;59.16;96773.13;10415161;28;20115;-61
2022/10/24 12:48:55;;;;;;;3.90;2.45;;;;;;;20.45;59.08;96779.31;10404834;28;20398;-61
2022/10/24 12:54:17;;;;;;;3.45;2.40;;;;;;;20.44;59.15;96782.34;10436583;28;20417;-61
2022/10/24 12:59:56;;;;;;;3.05;2.50;;;;;;;20.45;59.03;96775.84;10415908;28;20061;-61
2022/10/24 13:05:27;;;;;;;3.17;2.38;;;;;;;20.44;59.14;96768.81;10415504;28;20061;-61
2022/10/24 13:11:05;;;;;;;3.28;2.30;;;;;;;20.43;59.23;96770.75;10412969;28;20061;-61
2022/10/24 13:16:38;;;;;;;2.60;2.22;;;;;;;20.43;59.15;96773.44;10400095;28;20062;-61
2022/10/24 13:21:58;;;;;;;3.47;2.55;;;;;;;20.42;59.11;96750.19;10420126;28;20052;-61
2022/10/24 13:27:28;;;;;;;2.28;1.95;;;;;;;20.42;59.20;96741.31;10402343;28;20145;-61
2022/10/24 13:32:47;;;;;;;3.55;2.30;;;;;;;20.41;59.13;96734.31;10399626;28;20069;-61
2022/10/24 13:38:08;;;;;;;3.22;2.20;;;;;;;20.41;59.13;96778.41;10427604;28;20099;-61
2022/10/24 13:43:27;;;;;;;4.10;2.55;;;;;;;20.40;59.15;96784.91;10413915;28;20057;-61
2022/10/24 13:48:47;;;;;;;2.35;1.90;;;;;;;20.40;59.24;96776.81;10413629;28;20056;-61
2022/10/24 13:54:13;;;;;;;2.47;2.28;;;;;;;20.41;59.19;96774.91;10418065;28;20064;-61
2022/10/24 13:59:36;;;;;;;4.28;2.58;;;;;;;20.40;59.08;96749.75;10398957;28;20053;-61
2022/10/24 14:04:55;;;;;;;3.33;2.40;;;;;;;20.39;59.10;96731.16;10403781;28;20060;-61
2022/10/24 14:10:16;;;;;;;3.72;2.42;;;;;;;20.38;58.97;96706.00;10417064;28;20060;-62
2022/10/24 14:15:35;;;;;;;2.25;2.00;;;;;;;20.38;59.14;96710.63;10398159;28;20046;-61
2022/10/24 14:21:00;;;;;;;2.58;1.90;;;;;;;20.38;59.00;96726.84;10405146;28;20061;-61
2022/10/24 14:26:20;;;;;;;2.88;2.10;;;;;;;20.37;59.09;96738.81;10413160;28;20057;-61
2022/10/24 14:31:41;;;;;;;4.13;2.40;;;;;;;20.36;59.08;96738.00;10413148;28;20057;-62
2022/10/24 14:37:04;;;;;;;2.60;2.17;;;;;;;20.35;59.00;96737.22;10419882;28;20045;-61
2022/10/24 14:42:23;;;;;;;3.38;2.00;;;;;;;20.35;59.09;96725.63;10413069;28;20068;-62
2022/10/24 14:47:49;;;;;;;2.80;2.08;;;;;;;20.34;59.03;96713.97;10412803;28;20068;-61
2022/10/24 14:53:24;;;;;;;1.95;1.73;;;;;;;20.34;58.99;96708.56;10414089;28;20061;-61
2022/10/24 14:58:49;;;;;;;2.75;1.98;;;;;;;20.33;59.21;96701.59;10397943;28;20062;-62
2022/10/24 15:04:28;;;;;;;2.72;1.95;;;;;;;20.33;59.05;96690.78;10400784;28;20060;-61
2022/10/24 15:10:13;;;;;;;2.78;1.80;;;;;;;20.31;59.00;96682.19;10418645;28;20061;-62
2022/10/24 15:15:49;;;;;;;2.95;2.00;;;;;;;20.32;59.04;96677.56;10403987;28;20060;-61
2022/10/24 15:21:31;;;;;;;4.10;2.28;;;;;;;20.31;58.99;96679.50;10405116;28;20062;-61
2022/10/24 15:26:51;;;;;;;2.65;2.00;;;;;;;20.30;58.98;96701.44;10416196;28;20459;-58
2022/10/24 15:32:11;;;;;;;2.70;2.00;;;;;;;20.28;58.96;96680.13;10420520;28;20067;-61
2022/10/24 15:37:30;;;;;;;2.15;1.95;;;;;;;20.28;59.04;96655.78;10418499;28;20072;-61
2022/10/24 15:42:49;;;;;;;3.40;1.90;;;;;;;20.28;59.02;96687.47;10418969;28;20054;-61
2022/10/24 15:48:09;;;;;;;2.55;1.92;;;;;;;20.26;59.06;96705.94;10421506;28;20068;-61
2022/10/24 15:53:29;;;;;;;1.73;1.60;;;;;;;20.28;59.05;96722.63;10418056;28;20183;-61
2022/10/24 15:58:49;;;;;;;2.17;1.65;;;;;;;20.27;59.06;96729.97;10431397;28;20057;-60
2022/10/24 16:04:10;;;;;;;2.30;1.90;;;;;;;20.26;58.96;96722.97;10430422;28;20053;-61
2022/10/24 16:09:30;;;;;;;2.58;1.92;;;;;;;20.25;59.00;96726.81;10402187;28;20071;-61
2022/10/24 16:14:49;;;;;;;2.75;1.90;;;;;;;20.25;59.13;96736.84;10409158;28;20050;-61
2022/10/24 16:20:08;;;;;;;3.38;1.88;;;;;;;20.25;59.16;96743.03;10419114;28;20057;-60
2022/10/24 16:25:36;;;;;;;6.20;2.00;;;;;;;20.25;59.54;96739.53;10430744;28;20132;-61
2022/10/24 16:30:55;;;;;;;6.47;1.88;;;;;;;20.25;59.52;96736.84;10406605;28;20404;-61
2022/10/24 16:36:15;;;;;;;3.03;1.67;;;;;;;20.25;59.73;96726.81;10417034;28;20053;-58
2022/10/24 16:41:35;;;;;;;2.47;1.77;;;;;;;20.25;59.79;96734.91;10414382;28;20045;-61
2022/10/24 16:46:55;;;;;;;5.78;1.70;;;;;;;20.25;59.93;96734.91;10422874;28;20053;-57
2022/10/24 16:52:14;;;;;;;4.72;1.70;;;;;;;20.26;60.09;96752.72;10416039;28;20061;-61
2022/10/24 16:57:33;;;;;;;3.97;1.95;;;;;;;20.26;60.10;96752.72;10416374;28;20053;-62
2022/10/24 17:02:53;;;;;;;2.90;2.10;;;;;;;20.28;60.21;96757.81;10429028;28;20065;-61
2022/10/24 17:08:14;;;;;;;2.42;1.40;;;;;;;20.27;60.21;96757.03;10415193;28;20057;-60
2022/10/24 17:13:34;;;;;;;2.60;1.45;;;;;;;20.26;60.16;96760.03;10428494;28;20497;-60
2022/10/24 17:18:53;;;;;;;3.25;1.75;;;;;;;20.25;60.06;96743.03;10420818;28;20061;-57
2022/10/24 17:24:14;;;;;;;2.83;1.60;;;;;;;20.25;60.22;96753.84;10414936;28;20054;-61
2022/10/24 17:29:34;;;;;;;2.22;1.48;;;;;;;20.24;60.16;96746.84;10420252;28;20451;-60
2022/10/24 17:34:54;;;;;;;3.65;1.77;;;;;;;20.24;60.13;96744.13;10414874;28;20076;-60
2022/10/24 17:40:19;;;;;;;3.25;1.77;;;;;;;20.24;60.21;96754.19;10427441;28;20052;-60
2022/10/24 17:45:39;;;;;;;3.78;1.40;;;;;;;20.25;60.15;96758.47;10418753;28;20053;-61
2022/10/24 17:50:59;;;;;;;2.25;1.55;;;;;;;20.23;60.28;96764.22;10414218;28;20057;-61
2022/10/24 17:56:19;;;;;;;2.05;1.55;;;;;;;20.22;60.24;96754.50;10413360;28;20057;-61
2022/10/24 18:01:40;;;;;;;4.78;1.70;;;;;;;20.22;60.35;96768.03;10417146;28;20539;-59
2022/10/24 18:06:59;;;;;;;2.85;1.55;;;;;;;20.23;60.39;96768.81;10413766;28;20053;-60
2022/10/24 18:12:19;;;;;;;3.80;1.50;;;;;;;20.23;60.44;96768.81;10408477;28;20114;-64
2022/10/24 18:17:38;;;;;;;3.10;1.50;;;;;;;20.22;60.55;96773.44;10429337;28;20108;-62
2022/10/24 18:22:58;;;;;;;2.38;1.50;;;;;;;20.23;60.68;96776.94;10426720;28;20050;-65
2022/10/24 18:28:18;;;;;;;5.15;1.48;;;;;;;20.21;60.75;96771.88;10415661;28;20054;-59
2022/10/24 18:33:39;;;;;;;3.90;1.48;;;;;;;20.22;60.75;96780.75;10412835;28;20049;-61
2022/10/24 18:39:00;;;;;;;2.38;1.70;;;;;;;20.21;60.98;96781.88;10426000;28;20053;-61
2022/10/24 18:44:24;;;;;;;6.20;2.22;;;;;;;20.21;60.79;96796.22;10422791;28;20516;-57
2022/10/24 18:49:43;;;;;;;4.47;2.13;;;;;;;20.21;60.86;96788.09;10421031;28;20057;-61
2022/10/24 18:55:16;;;;;;;3.05;1.98;;;;;;;20.21;60.91;96785.38;10420622;28;20156;-59
2022/10/24 19:00:37;;;;;;;4.15;1.73;;;;;;;20.20;60.80;96791.91;10427648;28;20102;-60
2022/10/24 19:06:08;;;;;;;3.63;1.95;;;;;;;20.20;60.80;96794.63;10420351;28;20053;-58
2022/10/24 19:11:28;;;;;;;3.88;1.80;;;;;;;20.20;60.88;96796.53;10419152;28;20076;-60
2022/10/24 19:16:49;;;;;;;7.22;1.92;;;;;;;20.19;60.94;96784.94;10398846;28;20061;-61
2022/10/24 19:22:09;;;;;;;4.60;2.08;;;;;;;20.19;61.08;96778.69;10404893;28;20062;-63
2022/10/24 19:27:28;;;;;;;5.85;1.70;;;;;;;20.19;61.13;96774.09;10427250;28;20110;-61
2022/10/24 19:32:47;;;;;;;4.10;1.75;;;;;;;20.19;61.27;96778.69;10434877;28;20056;-60
2022/10/24 19:38:07;;;;;;;2.30;1.63;;;;;;;20.17;61.20;96778.25;10419149;28;20061;-63
2022/10/24 19:43:29;;;;;;;3.42;1.63;;;;;;;20.17;61.28;96775.53;10405731;28;20053;-58
2022/10/24 19:48:49;;;;;;;3.65;1.70;;;;;;;20.17;61.25;96786.34;10389970;28;20053;-58
2022/10/24 19:54:09;;;;;;;4.25;1.30;;;;;;;20.18;61.19;96799.56;10424749;28;20081;-58
2022/10/24 19:59:32;;;;;;;3.47;1.80;;;;;;;20.17;61.26;96789.88;10418855;28;20065;-62
2022/10/24 20:04:52;;;;;;;4.38;1.58;;;;;;;20.17;61.41;96794.47;10430066;28;20053;-60
2022/10/24 20:10:11;;;;;;;4.63;1.83;;;;;;;20.15;61.28;96800.22;10417126;28;20069;-59
2022/10/24 20:15:30;;;;;;;5.97;1.83;;;;;;;20.15;61.60;96797.53;10414995;28;20081;-60
2022/10/24 20:20:50;;;;;;;2.83;1.85;;;;;;;20.15;61.54;96809.13;10430519;28;20060;-58
2022/10/24 20:26:13;;;;;;;4.65;1.83;;;;;;;20.15;61.57;96797.53;10437802;28;20049;-60
2022/10/24 20:31:38;;;;;;;2.70;1.60;;;;;;;20.13;61.56;96783.50;10416979;28;20058;-59
2022/10/24 20:36:57;;;;;;;3.90;1.88;;;;;;;20.14;61.72;96779.69;10416960;28;20057;-62
2022/10/24 20:42:19;;;;;;;3.47;1.88;;;;;;;20.12;61.84;96777.31;10418770;28;20091;-60
2022/10/24 20:47:38;;;;;;;3.50;2.03;;;;;;;20.12;61.76;96771.91;10406876;28;20061;-60
2022/10/24 20:52:57;;;;;;;3.90;1.80;;;;;;;20.13;61.79;96761.88;10416363;28;20054;-61
2022/10/24 20:58:17;;;;;;;3.08;1.88;;;;;;;20.12;61.79;96766.50;10428862;28;20083;-60
2022/10/24 21:03:37;;;;;;;3.63;1.85;;;;;;;20.12;61.94;96754.91;10414692;28;20505;-60
2022/10/24 21:08:58;;;;;;;4.03;2.30;;;;;;;20.11;61.88;96761.41;10415088;28;20076;-60
2022/10/24 21:14:19;;;;;;;4.82;2.10;;;;;;;20.11;61.83;96764.13;10416940;28;20064;-60
2022/10/24 21:19:39;;;;;;;3.33;2.10;;;;;;;20.12;61.91;96771.13;10415278;28;20076;-62
2022/10/24 21:24:58;;;;;;;5.57;2.40;;;;;;;20.10;61.99;96774.16;10414846;28;20515;-61
2022/10/24 21:30:19;;;;;;;8.40;3.58;;;;;;;20.11;61.83;96780.34;10414482;28;20394;-61
2022/10/24 21:35:38;;;;;;;9.18;3.53;;;;;;;20.11;61.85;96780.34;10427791;28;20124;-60
2022/10/24 21:41:08;;;;;;;10.45;4.70;;;;;;;20.10;61.76;96776.84;10413967;28;20057;-60
2022/10/24 21:46:28;;;;;;;11.57;3.90;;;;;;;20.10;61.77;96790.38;10414270;28;20054;-59
2022/10/24 21:51:48;;;;;;;9.00;3.90;;;;;;;20.10;61.77;96781.47;10404955;28;20065;-61
2022/10/24 21:57:07;;;;;;;7.10;3.42;;;;;;;20.10;61.78;96778.78;10421610;28;20411;-61
2022/10/24 22:02:27;;;;;;;6.65;3.20;;;;;;;20.10;61.89;96792.28;10413800;28;20062;-61
2022/10/24 22:07:46;;;;;;;6.95;3.05;;;;;;;20.09;61.88;96779.88;10413288;28;20057;-62
2022/10/24 22:13:05;;;;;;;7.45;3.17;;;;;;;20.08;61.90;96786.41;10401243;28;20056;-61
2022/10/24 22:18:25;;;;;;;6.68;3.20;;;;;;;20.07;61.93;96801.06;10412840;28;20108;-62
2022/10/24 22:23:44;;;;;;;8.10;3.50;;;;;;;20.07;61.90;96809.16;10414846;28;20103;-62
2022/10/24 22:29:05;;;;;;;6.63;3.42;;;;;;;20.06;62.06;96821.13;10414931;28;20116;-62
2022/10/24 22:34:24;;;;;;;7.80;2.70;;;;;;;20.06;62.20;96813.00;10412894;28;20100;-62
2022/10/24 22:39:44;;;;;;;6.07;3.05;;;;;;;20.07;62.36;96822.69;10430784;28;20053;-61
2022/10/24 22:45:04;;;;;;;6.90;3.08;;;;;;;20.05;62.28;96824.94;10412054;28;20112;-62
2022/10/24 22:50:42;;;;;;;5.57;3.08;;;;;;;20.05;62.40;96824.94;10412948;28;20061;-62
2022/10/24 22:56:16;;;;;;;6.20;2.97;;;;;;;20.05;62.36;96824.94;10406414;28;20049;-61
2022/10/24 23:01:57;;;;;;;5.88;2.70;;;;;;;20.04;62.28;96818.72;10423451;28;20050;-61
2022/10/24 23:07:24;;;;;;;5.70;2.58;;;;;;;20.03;62.38;96805.53;10413554;28;20060;-61
2022/10/24 23:12:44;;;;;;;7.60;2.75;;;;;;;20.04;62.34;96812.53;10411859;28;20061;-62
2022/10/24 23:18:03;;;;;;;6.45;2.42;;;;;;;20.03;62.25;96817.16;10412210;28;20111;-62
2022/10/24 23:23:23;;;;;;;4.47;2.30;;;;;;;20.03;62.24;96824.47;10418954;28;20075;-62
2022/10/24 23:29:24;;;;;;;5.40;2.67;;;;;;;20.02;62.31;96833.72;10415950;28;20057;-61
2022/10/24 23:34:45;;;;;;;4.90;2.47;;;;;;;20.02;62.29;96848.00;10419192;28;20049;-62
2022/10/24 23:40:16;;;;;;;5.03;2.53;;;;;;;20.01;62.25;96849.13;10423256;28;20064;-61
2022/10/24 23:45:58;;;;;;;4.55;2.50;;;;;;;20.01;62.13;96842.91;10416779;28;20469;-61
2022/10/24 23:51:23;;;;;;;5.30;2.58;;;;;;;20.00;62.19;96844.84;10398797;28;20057;-61
2022/10/24 23:56:43;;;;;;;4.90;2.30;;;;;;;19.99;62.15;96834.34;10418786;28;20501;-61
